sensor_id;sensor_type;location;lat;lon;timestamp;P1;durP1;ratioP1;P2;durP2;ratioP2
56255;SDS011;57229;51.432;-2.598;2023-03-11T00:00:41;32.28;;;18.92;;
56255;SDS011;57229;51.432;-2.598;2023-03-11T00:03:10;30.00;;;19.15;;
56255;SDS011;57229;51.432;-2.598;2023-03-11T00:05:38;33.00;;;18.95;;
56255;SDS011;57229;51.432;-2.598;2023-03-11T00:08:06;30.40;;;18.15;;
56255;SDS011;57229;51.432;-2.598;2023-03-11T00:10:35;29.73;;;19.00;;
56255;SDS011;57229;51.432;-2.598;2023-03-11T00:13:03;31.42;;;17.40;;
56255;SDS011;57229;51.432;-2.598;2023-03-11T00:15:30;30.08;;;18.33;;
56255;SDS011;57229;51.432;-2.598;2023-03-11T00:17:56;30.75;;;17.83;;
56255;SDS011;57229;51.432;-2.598;2023-03-11T00:22:55;29.75;;;17.73;;
56255;SDS011;57229;51.432;-2.598;2023-03-11T00:25:22;27.92;;;17.65;;
56255;SDS011;57229;51.432;-2.598;2023-03-11T00:27:50;32.17;;;17.38;;
56255;SDS011;57229;51.432;-2.598;2023-03-11T00:30:19;27.25;;;16.92;;
56255;SDS011;57229;51.432;-2.598;2023-03-11T00:32:53;34.00;;;18.95;;
56255;SDS011;57229;51.432;-2.598;2023-03-11T00:35:22;29.48;;;18.55;;
56255;SDS011;57229;51.432;-2.598;2023-03-11T00:37:51;29.65;;;18.00;;
56255;SDS011;57229;51.432;-2.598;2023-03-11T00:40:20;32.33;;;17.88;;
56255;SDS011;57229;51.432;-2.598;2023-03-11T00:42:50;30.77;;;18.02;;
56255;SDS011;57229;51.432;-2.598;2023-03-11T00:45:16;28.23;;;18.10;;
56255;SDS011;57229;51.432;-2.598;2023-03-11T00:47:43;33.80;;;19.38;;
56255;SDS011;57229;51.432;-2.598;2023-03-11T00:50:19;29.80;;;18.17;;
56255;SDS011;57229;51.432;-2.598;2023-03-11T00:52:51;30.75;;;18.15;;
56255;SDS011;57229;51.432;-2.598;2023-03-11T00:55:31;30.80;;;18.17;;
56255;SDS011;57229;51.432;-2.598;2023-03-11T00:58:03;28.83;;;17.65;;
56255;SDS011;57229;51.432;-2.598;2023-03-11T01:00:31;31.33;;;17.98;;
56255;SDS011;57229;51.432;-2.598;2023-03-11T01:02:58;26.50;;;17.52;;
56255;SDS011;57229;51.432;-2.598;2023-03-11T01:05:26;31.20;;;18.33;;
56255;SDS011;57229;51.432;-2.598;2023-03-11T01:07:53;28.92;;;16.88;;
56255;SDS011;57229;51.432;-2.598;2023-03-11T01:10:19;31.05;;;18.60;;
56255;SDS011;57229;51.432;-2.598;2023-03-11T01:12:45;31.35;;;18.25;;
56255;SDS011;57229;51.432;-2.598;2023-03-11T01:15:21;27.73;;;17.20;;
56255;SDS011;57229;51.432;-2.598;2023-03-11T01:17:51;28.65;;;17.25;;
56255;SDS011;57229;51.432;-2.598;2023-03-11T01:20:17;26.55;;;17.13;;
56255;SDS011;57229;51.432;-2.598;2023-03-11T01:22:43;29.17;;;18.45;;
56255;SDS011;57229;51.432;-2.598;2023-03-11T01:25:18;27.92;;;18.30;;
56255;SDS011;57229;51.432;-2.598;2023-03-11T01:27:46;25.50;;;17.40;;
56255;SDS011;57229;51.432;-2.598;2023-03-11T01:30:14;29.38;;;16.92;;
56255;SDS011;57229;51.432;-2.598;2023-03-11T01:32:42;29.65;;;17.50;;
56255;SDS011;57229;51.432;-2.598;2023-03-11T01:35:15;30.13;;;16.73;;
56255;SDS011;57229;51.432;-2.598;2023-03-11T01:37:42;26.98;;;17.25;;
56255;SDS011;57229;51.432;-2.598;2023-03-11T01:40:16;25.75;;;17.70;;
56255;SDS011;57229;51.432;-2.598;2023-03-11T01:42:43;27.23;;;16.33;;
56255;SDS011;57229;51.432;-2.598;2023-03-11T01:45:23;31.73;;;18.42;;
56255;SDS011;57229;51.432;-2.598;2023-03-11T01:48:09;28.42;;;18.40;;
56255;SDS011;57229;51.432;-2.598;2023-03-11T01:50:38;26.92;;;17.58;;
56255;SDS011;57229;51.432;-2.598;2023-03-11T01:53:07;28.80;;;17.70;;
56255;SDS011;57229;51.432;-2.598;2023-03-11T01:55:33;28.90;;;19.25;;
56255;SDS011;57229;51.432;-2.598;2023-03-11T01:58:00;29.92;;;18.85;;
56255;SDS011;57229;51.432;-2.598;2023-03-11T02:00:28;32.72;;;19.75;;
56255;SDS011;57229;51.432;-2.598;2023-03-11T02:02:54;35.15;;;20.48;;
56255;SDS011;57229;51.432;-2.598;2023-03-11T02:05:23;34.00;;;19.90;;
56255;SDS011;57229;51.432;-2.598;2023-03-11T02:07:51;36.95;;;20.73;;
56255;SDS011;57229;51.432;-2.598;2023-03-11T02:10:19;31.67;;;19.60;;
56255;SDS011;57229;51.432;-2.598;2023-03-11T02:12:48;30.80;;;19.45;;
56255;SDS011;57229;51.432;-2.598;2023-03-11T02:15:16;30.50;;;19.88;;
56255;SDS011;57229;51.432;-2.598;2023-03-11T02:17:50;31.48;;;19.15;;
56255;SDS011;57229;51.432;-2.598;2023-03-11T02:23:08;29.65;;;18.50;;
56255;SDS011;57229;51.432;-2.598;2023-03-11T02:28:24;30.60;;;19.02;;
56255;SDS011;57229;51.432;-2.598;2023-03-11T02:30:59;29.00;;;19.17;;
56255;SDS011;57229;51.432;-2.598;2023-03-11T02:33:30;30.70;;;18.73;;
56255;SDS011;57229;51.432;-2.598;2023-03-11T02:35:58;33.47;;;19.63;;
56255;SDS011;57229;51.432;-2.598;2023-03-11T02:38:35;29.77;;;18.70;;
56255;SDS011;57229;51.432;-2.598;2023-03-11T02:41:01;35.67;;;18.48;;
56255;SDS011;57229;51.432;-2.598;2023-03-11T02:43:39;29.58;;;19.95;;
56255;SDS011;57229;51.432;-2.598;2023-03-11T02:46:07;30.90;;;19.13;;
56255;SDS011;57229;51.432;-2.598;2023-03-11T02:48:35;31.80;;;19.38;;
56255;SDS011;57229;51.432;-2.598;2023-03-11T02:51:03;29.35;;;18.40;;
56255;SDS011;57229;51.432;-2.598;2023-03-11T02:53:29;29.50;;;18.90;;
56255;SDS011;57229;51.432;-2.598;2023-03-11T02:55:59;32.33;;;19.67;;
56255;SDS011;57229;51.432;-2.598;2023-03-11T02:58:25;30.65;;;19.30;;
56255;SDS011;57229;51.432;-2.598;2023-03-11T03:00:51;29.40;;;19.02;;
56255;SDS011;57229;51.432;-2.598;2023-03-11T03:03:16;29.90;;;18.23;;
56255;SDS011;57229;51.432;-2.598;2023-03-11T03:05:42;29.90;;;18.75;;
56255;SDS011;57229;51.432;-2.598;2023-03-11T03:08:08;31.15;;;18.75;;
56255;SDS011;57229;51.432;-2.598;2023-03-11T03:10:34;34.45;;;19.10;;
56255;SDS011;57229;51.432;-2.598;2023-03-11T03:13:00;29.92;;;18.10;;
56255;SDS011;57229;51.432;-2.598;2023-03-11T03:15:44;29.88;;;17.65;;
56255;SDS011;57229;51.432;-2.598;2023-03-11T03:18:10;30.33;;;18.13;;
56255;SDS011;57229;51.432;-2.598;2023-03-11T03:20:36;29.02;;;18.38;;
56255;SDS011;57229;51.432;-2.598;2023-03-11T03:23:05;32.15;;;17.90;;
56255;SDS011;57229;51.432;-2.598;2023-03-11T03:25:33;27.52;;;18.15;;
56255;SDS011;57229;51.432;-2.598;2023-03-11T03:27:59;26.63;;;17.35;;
56255;SDS011;57229;51.432;-2.598;2023-03-11T03:30:25;27.35;;;17.77;;
56255;SDS011;57229;51.432;-2.598;2023-03-11T03:32:52;25.30;;;17.02;;
56255;SDS011;57229;51.432;-2.598;2023-03-11T03:35:18;30.35;;;18.27;;
56255;SDS011;57229;51.432;-2.598;2023-03-11T03:37:44;29.70;;;17.50;;
56255;SDS011;57229;51.432;-2.598;2023-03-11T03:40:10;24.45;;;17.13;;
56255;SDS011;57229;51.432;-2.598;2023-03-11T03:42:36;27.25;;;17.27;;
56255;SDS011;57229;51.432;-2.598;2023-03-11T03:45:03;25.20;;;17.38;;
56255;SDS011;57229;51.432;-2.598;2023-03-11T03:47:31;23.08;;;15.50;;
56255;SDS011;57229;51.432;-2.598;2023-03-11T03:50:01;27.30;;;17.25;;
56255;SDS011;57229;51.432;-2.598;2023-03-11T03:52:35;27.20;;;16.27;;
56255;SDS011;57229;51.432;-2.598;2023-03-11T03:55:02;25.08;;;17.25;;
56255;SDS011;57229;51.432;-2.598;2023-03-11T03:57:37;24.55;;;16.25;;
56255;SDS011;57229;51.432;-2.598;2023-03-11T04:00:11;26.38;;;17.17;;
56255;SDS011;57229;51.432;-2.598;2023-03-11T04:02:37;25.75;;;16.58;;
56255;SDS011;57229;51.432;-2.598;2023-03-11T04:05:06;24.35;;;16.52;;
56255;SDS011;57229;51.432;-2.598;2023-03-11T04:07:33;24.55;;;16.50;;
56255;SDS011;57229;51.432;-2.598;2023-03-11T04:10:03;27.35;;;16.90;;
56255;SDS011;57229;51.432;-2.598;2023-03-11T04:12:32;27.52;;;17.42;;
56255;SDS011;57229;51.432;-2.598;2023-03-11T04:14:57;25.27;;;16.17;;
56255;SDS011;57229;51.432;-2.598;2023-03-11T04:17:32;24.45;;;16.10;;
56255;SDS011;57229;51.432;-2.598;2023-03-11T04:20:02;22.90;;;16.40;;
56255;SDS011;57229;51.432;-2.598;2023-03-11T04:22:34;23.40;;;15.20;;
56255;SDS011;57229;51.432;-2.598;2023-03-11T04:25:03;24.08;;;15.90;;
56255;SDS011;57229;51.432;-2.598;2023-03-11T04:27:29;26.85;;;15.68;;
56255;SDS011;57229;51.432;-2.598;2023-03-11T04:29:55;24.55;;;15.68;;
56255;SDS011;57229;51.432;-2.598;2023-03-11T04:32:20;23.20;;;15.85;;
56255;SDS011;57229;51.432;-2.598;2023-03-11T04:34:52;26.85;;;15.77;;
56255;SDS011;57229;51.432;-2.598;2023-03-11T04:37:25;23.70;;;15.45;;
56255;SDS011;57229;51.432;-2.598;2023-03-11T04:40:03;22.30;;;13.82;;
56255;SDS011;57229;51.432;-2.598;2023-03-11T04:42:34;20.85;;;13.55;;
56255;SDS011;57229;51.432;-2.598;2023-03-11T04:45:04;24.85;;;14.98;;
56255;SDS011;57229;51.432;-2.598;2023-03-11T04:47:31;21.73;;;14.18;;
56255;SDS011;57229;51.432;-2.598;2023-03-11T04:50:00;19.92;;;14.30;;
56255;SDS011;57229;51.432;-2.598;2023-03-11T04:52:25;23.13;;;13.63;;
56255;SDS011;57229;51.432;-2.598;2023-03-11T04:54:51;20.38;;;12.20;;
56255;SDS011;57229;51.432;-2.598;2023-03-11T04:57:17;21.58;;;11.40;;
56255;SDS011;57229;51.432;-2.598;2023-03-11T04:59:43;20.48;;;11.00;;
56255;SDS011;57229;51.432;-2.598;2023-03-11T05:02:09;21.23;;;10.80;;
56255;SDS011;57229;51.432;-2.598;2023-03-11T05:04:43;14.48;;;10.02;;
56255;SDS011;57229;51.432;-2.598;2023-03-11T05:07:09;16.35;;;9.73;;
56255;SDS011;57229;51.432;-2.598;2023-03-11T05:09:37;14.93;;;9.60;;
56255;SDS011;57229;51.432;-2.598;2023-03-11T05:12:05;13.27;;;9.43;;
56255;SDS011;57229;51.432;-2.598;2023-03-11T05:14:34;18.83;;;9.50;;
56255;SDS011;57229;51.432;-2.598;2023-03-11T05:17:03;14.40;;;10.05;;
56255;SDS011;57229;51.432;-2.598;2023-03-11T05:19:32;13.60;;;10.07;;
56255;SDS011;57229;51.432;-2.598;2023-03-11T05:22:03;13.77;;;9.85;;
56255;SDS011;57229;51.432;-2.598;2023-03-11T05:24:29;13.38;;;10.02;;
56255;SDS011;57229;51.432;-2.598;2023-03-11T05:26:55;15.73;;;9.60;;
56255;SDS011;57229;51.432;-2.598;2023-03-11T05:29:22;18.98;;;9.13;;
56255;SDS011;57229;51.432;-2.598;2023-03-11T05:31:49;17.20;;;9.55;;
56255;SDS011;57229;51.432;-2.598;2023-03-11T05:34:15;16.42;;;9.10;;
56255;SDS011;57229;51.432;-2.598;2023-03-11T05:36:41;13.00;;;8.25;;
56255;SDS011;57229;51.432;-2.598;2023-03-11T05:39:08;13.57;;;9.00;;
56255;SDS011;57229;51.432;-2.598;2023-03-11T05:41:34;11.57;;;8.20;;
56255;SDS011;57229;51.432;-2.598;2023-03-11T05:44:00;15.63;;;8.60;;
56255;SDS011;57229;51.432;-2.598;2023-03-11T05:46:26;13.30;;;8.00;;
56255;SDS011;57229;51.432;-2.598;2023-03-11T05:48:52;12.80;;;7.25;;
56255;SDS011;57229;51.432;-2.598;2023-03-11T05:51:21;10.00;;;7.18;;
56255;SDS011;57229;51.432;-2.598;2023-03-11T05:53:47;10.07;;;7.45;;
56255;SDS011;57229;51.432;-2.598;2023-03-11T05:56:17;11.35;;;7.93;;
56255;SDS011;57229;51.432;-2.598;2023-03-11T05:58:44;16.48;;;7.80;;
56255;SDS011;57229;51.432;-2.598;2023-03-11T06:01:12;11.77;;;7.50;;
56255;SDS011;57229;51.432;-2.598;2023-03-11T06:03:39;12.57;;;7.40;;
56255;SDS011;57229;51.432;-2.598;2023-03-11T06:06:09;11.60;;;7.50;;
56255;SDS011;57229;51.432;-2.598;2023-03-11T06:08:38;13.25;;;7.15;;
56255;SDS011;57229;51.432;-2.598;2023-03-11T06:11:05;14.43;;;7.68;;
56255;SDS011;57229;51.432;-2.598;2023-03-11T06:13:32;8.35;;;7.15;;
56255;SDS011;57229;51.432;-2.598;2023-03-11T06:16:02;11.73;;;7.60;;
56255;SDS011;57229;51.432;-2.598;2023-03-11T06:18:29;12.88;;;7.50;;
56255;SDS011;57229;51.432;-2.598;2023-03-11T06:21:02;9.13;;;7.32;;
56255;SDS011;57229;51.432;-2.598;2023-03-11T06:23:34;9.55;;;7.45;;
56255;SDS011;57229;51.432;-2.598;2023-03-11T06:26:04;11.02;;;7.10;;
56255;SDS011;57229;51.432;-2.598;2023-03-11T06:28:30;12.15;;;7.32;;
56255;SDS011;57229;51.432;-2.598;2023-03-11T06:30:56;12.73;;;7.75;;
56255;SDS011;57229;51.432;-2.598;2023-03-11T06:33:31;11.65;;;6.82;;
56255;SDS011;57229;51.432;-2.598;2023-03-11T06:36:00;11.82;;;7.22;;
56255;SDS011;57229;51.432;-2.598;2023-03-11T06:38:27;9.48;;;7.03;;
56255;SDS011;57229;51.432;-2.598;2023-03-11T06:40:53;11.00;;;7.90;;
56255;SDS011;57229;51.432;-2.598;2023-03-11T06:43:20;10.00;;;7.25;;
56255;SDS011;57229;51.432;-2.598;2023-03-11T06:45:46;12.55;;;7.20;;
56255;SDS011;57229;51.432;-2.598;2023-03-11T06:48:11;11.57;;;7.30;;
56255;SDS011;57229;51.432;-2.598;2023-03-11T06:50:37;15.23;;;7.20;;
56255;SDS011;57229;51.432;-2.598;2023-03-11T06:53:06;17.05;;;7.40;;
56255;SDS011;57229;51.432;-2.598;2023-03-11T06:55:32;10.93;;;7.20;;
56255;SDS011;57229;51.432;-2.598;2023-03-11T06:57:59;16.33;;;6.88;;
56255;SDS011;57229;51.432;-2.598;2023-03-11T07:00:25;8.52;;;6.63;;
56255;SDS011;57229;51.432;-2.598;2023-03-11T07:02:51;10.50;;;7.10;;
56255;SDS011;57229;51.432;-2.598;2023-03-11T07:05:17;16.85;;;7.45;;
56255;SDS011;57229;51.432;-2.598;2023-03-11T07:07:42;11.07;;;7.10;;
56255;SDS011;57229;51.432;-2.598;2023-03-11T07:10:14;11.13;;;6.82;;
56255;SDS011;57229;51.432;-2.598;2023-03-11T07:12:39;9.45;;;7.13;;
56255;SDS011;57229;51.432;-2.598;2023-03-11T07:15:05;10.35;;;7.25;;
56255;SDS011;57229;51.432;-2.598;2023-03-11T07:17:32;11.13;;;7.03;;
56255;SDS011;57229;51.432;-2.598;2023-03-11T07:19:57;12.88;;;6.72;;
56255;SDS011;57229;51.432;-2.598;2023-03-11T07:22:23;11.65;;;6.97;;
56255;SDS011;57229;51.432;-2.598;2023-03-11T07:24:50;15.48;;;7.03;;
56255;SDS011;57229;51.432;-2.598;2023-03-11T07:27:15;11.80;;;7.18;;
56255;SDS011;57229;51.432;-2.598;2023-03-11T07:29:42;11.65;;;7.03;;
56255;SDS011;57229;51.432;-2.598;2023-03-11T07:32:18;9.20;;;6.00;;
56255;SDS011;57229;51.432;-2.598;2023-03-11T07:34:43;11.43;;;6.65;;
56255;SDS011;57229;51.432;-2.598;2023-03-11T07:37:09;9.20;;;6.53;;
56255;SDS011;57229;51.432;-2.598;2023-03-11T07:39:35;8.35;;;6.18;;
56255;SDS011;57229;51.432;-2.598;2023-03-11T07:42:02;10.88;;;6.35;;
56255;SDS011;57229;51.432;-2.598;2023-03-11T07:44:28;11.40;;;6.00;;
56255;SDS011;57229;51.432;-2.598;2023-03-11T07:46:54;13.73;;;5.88;;
56255;SDS011;57229;51.432;-2.598;2023-03-11T07:49:20;11.25;;;5.28;;
56255;SDS011;57229;51.432;-2.598;2023-03-11T07:51:48;8.45;;;6.28;;
56255;SDS011;57229;51.432;-2.598;2023-03-11T07:54:17;12.95;;;6.07;;
56255;SDS011;57229;51.432;-2.598;2023-03-11T07:56:45;9.18;;;6.00;;
56255;SDS011;57229;51.432;-2.598;2023-03-11T07:59:16;9.95;;;5.85;;
56255;SDS011;57229;51.432;-2.598;2023-03-11T08:01:42;11.27;;;5.38;;
56255;SDS011;57229;51.432;-2.598;2023-03-11T08:04:11;7.55;;;5.55;;
56255;SDS011;57229;51.432;-2.598;2023-03-11T08:06:40;11.50;;;5.88;;
56255;SDS011;57229;51.432;-2.598;2023-03-11T08:09:08;12.48;;;6.30;;
56255;SDS011;57229;51.432;-2.598;2023-03-11T08:11:35;10.02;;;5.97;;
56255;SDS011;57229;51.432;-2.598;2023-03-11T08:14:02;12.50;;;6.70;;
56255;SDS011;57229;51.432;-2.598;2023-03-11T08:16:28;9.02;;;5.80;;
56255;SDS011;57229;51.432;-2.598;2023-03-11T08:18:54;9.00;;;5.80;;
56255;SDS011;57229;51.432;-2.598;2023-03-11T08:21:21;8.65;;;5.95;;
56255;SDS011;57229;51.432;-2.598;2023-03-11T08:23:49;16.20;;;6.25;;
56255;SDS011;57229;51.432;-2.598;2023-03-11T08:26:19;8.32;;;5.65;;
56255;SDS011;57229;51.432;-2.598;2023-03-11T08:28:46;9.55;;;5.78;;
56255;SDS011;57229;51.432;-2.598;2023-03-11T08:31:14;12.00;;;5.78;;
56255;SDS011;57229;51.432;-2.598;2023-03-11T08:33:45;12.60;;;5.70;;
56255;SDS011;57229;51.432;-2.598;2023-03-11T08:36:15;7.45;;;6.00;;
56255;SDS011;57229;51.432;-2.598;2023-03-11T08:38:42;9.50;;;5.78;;
56255;SDS011;57229;51.432;-2.598;2023-03-11T08:41:29;14.43;;;5.93;;
56255;SDS011;57229;51.432;-2.598;2023-03-11T08:43:58;10.88;;;6.03;;
56255;SDS011;57229;51.432;-2.598;2023-03-11T08:46:27;11.98;;;6.43;;
56255;SDS011;57229;51.432;-2.598;2023-03-11T08:48:54;10.65;;;6.28;;
56255;SDS011;57229;51.432;-2.598;2023-03-11T08:51:21;9.75;;;6.07;;
56255;SDS011;57229;51.432;-2.598;2023-03-11T08:53:48;9.95;;;5.97;;
56255;SDS011;57229;51.432;-2.598;2023-03-11T08:56:14;14.50;;;6.57;;
56255;SDS011;57229;51.432;-2.598;2023-03-11T08:58:40;14.45;;;6.60;;
56255;SDS011;57229;51.432;-2.598;2023-03-11T09:01:06;11.18;;;6.28;;
56255;SDS011;57229;51.432;-2.598;2023-03-11T09:03:35;8.15;;;6.22;;
56255;SDS011;57229;51.432;-2.598;2023-03-11T09:06:02;8.55;;;6.13;;
56255;SDS011;57229;51.432;-2.598;2023-03-11T09:08:29;10.65;;;6.30;;
56255;SDS011;57229;51.432;-2.598;2023-03-11T09:10:55;12.32;;;6.30;;
56255;SDS011;57229;51.432;-2.598;2023-03-11T09:13:21;15.05;;;6.47;;
56255;SDS011;57229;51.432;-2.598;2023-03-11T09:15:48;9.32;;;6.05;;
56255;SDS011;57229;51.432;-2.598;2023-03-11T09:18:14;18.55;;;6.60;;
56255;SDS011;57229;51.432;-2.598;2023-03-11T09:20:40;11.48;;;6.20;;
56255;SDS011;57229;51.432;-2.598;2023-03-11T09:23:08;10.90;;;6.50;;
56255;SDS011;57229;51.432;-2.598;2023-03-11T09:25:35;13.43;;;6.43;;
56255;SDS011;57229;51.432;-2.598;2023-03-11T09:34:50;11.15;;;5.93;;
56255;SDS011;57229;51.432;-2.598;2023-03-11T09:51:32;9.52;;;6.50;;
56255;SDS011;57229;51.432;-2.598;2023-03-11T09:57:08;14.05;;;6.70;;
56255;SDS011;57229;51.432;-2.598;2023-03-11T09:59:59;11.95;;;5.88;;
56255;SDS011;57229;51.432;-2.598;2023-03-11T10:02:50;9.50;;;5.70;;
56255;SDS011;57229;51.432;-2.598;2023-03-11T10:05:21;9.07;;;5.70;;
56255;SDS011;57229;51.432;-2.598;2023-03-11T10:07:56;9.10;;;5.80;;
56255;SDS011;57229;51.432;-2.598;2023-03-11T10:10:24;8.80;;;5.65;;
56255;SDS011;57229;51.432;-2.598;2023-03-11T10:25:24;8.85;;;4.85;;
56255;SDS011;57229;51.432;-2.598;2023-03-11T10:37:38;5.82;;;4.90;;
56255;SDS011;57229;51.432;-2.598;2023-03-11T10:40:33;13.65;;;4.75;;
56255;SDS011;57229;51.432;-2.598;2023-03-11T10:43:02;8.10;;;5.30;;
56255;SDS011;57229;51.432;-2.598;2023-03-11T10:45:37;9.10;;;5.40;;
56255;SDS011;57229;51.432;-2.598;2023-03-11T10:48:11;9.85;;;4.85;;
56255;SDS011;57229;51.432;-2.598;2023-03-11T10:58:02;7.63;;;4.40;;
56255;SDS011;57229;51.432;-2.598;2023-03-11T11:33:24;4.30;;;3.90;;
56255;SDS011;57229;51.432;-2.598;2023-03-11T11:35:56;4.38;;;3.97;;
56255;SDS011;57229;51.432;-2.598;2023-03-11T11:38:26;4.85;;;3.88;;
56255;SDS011;57229;51.432;-2.598;2023-03-11T11:44:31;7.68;;;4.40;;
56255;SDS011;57229;51.432;-2.598;2023-03-11T11:47:38;4.60;;;4.20;;
56255;SDS011;57229;51.432;-2.598;2023-03-11T11:50:25;7.45;;;3.90;;
56255;SDS011;57229;51.432;-2.598;2023-03-11T11:53:06;5.20;;;3.60;;
56255;SDS011;57229;51.432;-2.598;2023-03-11T11:55:43;7.78;;;4.20;;
56255;SDS011;57229;51.432;-2.598;2023-03-11T11:58:13;8.03;;;4.07;;
56255;SDS011;57229;51.432;-2.598;2023-03-11T12:09:05;5.45;;;4.03;;
56255;SDS011;57229;51.432;-2.598;2023-03-11T12:11:43;4.30;;;4.00;;
56255;SDS011;57229;51.432;-2.598;2023-03-11T12:17:01;6.25;;;4.15;;
56255;SDS011;57229;51.432;-2.598;2023-03-11T12:27:39;5.35;;;3.80;;
56255;SDS011;57229;51.432;-2.598;2023-03-11T12:30:15;6.47;;;3.90;;
56255;SDS011;57229;51.432;-2.598;2023-03-11T12:32:50;6.63;;;3.78;;
56255;SDS011;57229;51.432;-2.598;2023-03-11T12:35:30;7.40;;;3.72;;
56255;SDS011;57229;51.432;-2.598;2023-03-11T12:46:02;7.32;;;3.72;;
56255;SDS011;57229;51.432;-2.598;2023-03-11T12:48:36;3.78;;;3.30;;
56255;SDS011;57229;51.432;-2.598;2023-03-11T12:53:58;3.40;;;3.20;;
56255;SDS011;57229;51.432;-2.598;2023-03-11T12:56:49;3.67;;;3.40;;
56255;SDS011;57229;51.432;-2.598;2023-03-11T13:07:36;3.88;;;3.50;;
56255;SDS011;57229;51.432;-2.598;2023-03-11T13:10:14;3.85;;;3.50;;
56255;SDS011;57229;51.432;-2.598;2023-03-11T13:12:44;7.80;;;3.70;;
56255;SDS011;57229;51.432;-2.598;2023-03-11T13:17:54;3.80;;;3.50;;
56255;SDS011;57229;51.432;-2.598;2023-03-11T13:23:07;3.97;;;3.58;;
56255;SDS011;57229;51.432;-2.598;2023-03-11T13:34:11;4.28;;;3.88;;
56255;SDS011;57229;51.432;-2.598;2023-03-11T13:36:56;6.85;;;4.05;;
56255;SDS011;57229;51.432;-2.598;2023-03-11T13:39:30;9.38;;;4.07;;
56255;SDS011;57229;51.432;-2.598;2023-03-11T13:42:47;4.10;;;3.70;;
56255;SDS011;57229;51.432;-2.598;2023-03-11T13:45:26;5.53;;;4.28;;
56255;SDS011;57229;51.432;-2.598;2023-03-11T13:50:55;5.15;;;3.90;;
56255;SDS011;57229;51.432;-2.598;2023-03-11T13:53:24;4.63;;;4.30;;
56255;SDS011;57229;51.432;-2.598;2023-03-11T13:55:59;4.57;;;4.10;;
56255;SDS011;57229;51.432;-2.598;2023-03-11T13:58:26;8.18;;;4.40;;
56255;SDS011;57229;51.432;-2.598;2023-03-11T14:00:59;7.15;;;4.10;;
56255;SDS011;57229;51.432;-2.598;2023-03-11T14:03:35;5.68;;;4.68;;
56255;SDS011;57229;51.432;-2.598;2023-03-11T14:06:06;11.32;;;5.05;;
56255;SDS011;57229;51.432;-2.598;2023-03-11T14:08:36;6.93;;;4.20;;
56255;SDS011;57229;51.432;-2.598;2023-03-11T14:13:39;6.25;;;4.43;;
56255;SDS011;57229;51.432;-2.598;2023-03-11T14:16:12;4.55;;;3.80;;
56255;SDS011;57229;51.432;-2.598;2023-03-11T14:18:47;4.50;;;4.10;;
56255;SDS011;57229;51.432;-2.598;2023-03-11T14:21:26;4.22;;;3.83;;
56255;SDS011;57229;51.432;-2.598;2023-03-11T14:23:52;5.40;;;4.43;;
56255;SDS011;57229;51.432;-2.598;2023-03-11T14:26:20;5.00;;;4.35;;
56255;SDS011;57229;51.432;-2.598;2023-03-11T14:29:00;5.05;;;4.30;;
56255;SDS011;57229;51.432;-2.598;2023-03-11T14:31:38;6.20;;;4.70;;
56255;SDS011;57229;51.432;-2.598;2023-03-11T14:34:17;5.95;;;4.43;;
56255;SDS011;57229;51.432;-2.598;2023-03-11T14:36:52;6.15;;;4.70;;
56255;SDS011;57229;51.432;-2.598;2023-03-11T14:41:55;5.97;;;4.43;;
56255;SDS011;57229;51.432;-2.598;2023-03-11T14:44:28;6.20;;;4.88;;
56255;SDS011;57229;51.432;-2.598;2023-03-11T14:47:02;5.47;;;4.65;;
56255;SDS011;57229;51.432;-2.598;2023-03-11T14:49:36;7.10;;;4.45;;
56255;SDS011;57229;51.432;-2.598;2023-03-11T14:52:49;7.72;;;4.72;;
56255;SDS011;57229;51.432;-2.598;2023-03-11T14:54:54;12.25;;;5.00;;
56255;SDS011;57229;51.432;-2.598;2023-03-11T14:58:22;8.48;;;4.90;;
56255;SDS011;57229;51.432;-2.598;2023-03-11T15:00:29;8.73;;;4.72;;
56255;SDS011;57229;51.432;-2.598;2023-03-11T15:03:01;5.30;;;4.80;;
56255;SDS011;57229;51.432;-2.598;2023-03-11T15:06:00;7.45;;;4.72;;
56255;SDS011;57229;51.432;-2.598;2023-03-11T15:08:41;7.18;;;5.22;;
56255;SDS011;57229;51.432;-2.598;2023-03-11T15:13:38;6.10;;;5.45;;
56255;SDS011;57229;51.432;-2.598;2023-03-11T15:16:06;8.45;;;5.20;;
56255;SDS011;57229;51.432;-2.598;2023-03-11T15:18:45;7.90;;;5.43;;
56255;SDS011;57229;51.432;-2.598;2023-03-11T15:21:13;7.45;;;5.30;;
56255;SDS011;57229;51.432;-2.598;2023-03-11T15:23:45;8.35;;;4.95;;
56255;SDS011;57229;51.432;-2.598;2023-03-11T15:26:23;6.40;;;5.13;;
56255;SDS011;57229;51.432;-2.598;2023-03-11T15:28:55;7.00;;;5.22;;
56255;SDS011;57229;51.432;-2.598;2023-03-11T15:31:36;5.70;;;5.20;;
56255;SDS011;57229;51.432;-2.598;2023-03-11T15:34:10;6.18;;;5.55;;
56255;SDS011;57229;51.432;-2.598;2023-03-11T15:45:15;11.82;;;5.65;;
56255;SDS011;57229;51.432;-2.598;2023-03-11T15:47:45;7.47;;;5.85;;
56255;SDS011;57229;51.432;-2.598;2023-03-11T15:50:13;9.18;;;8.00;;
56255;SDS011;57229;51.432;-2.598;2023-03-11T15:52:48;12.38;;;6.68;;
56255;SDS011;57229;51.432;-2.598;2023-03-11T15:55:18;11.65;;;8.10;;
56255;SDS011;57229;51.432;-2.598;2023-03-11T15:57:44;13.23;;;7.20;;
56255;SDS011;57229;51.432;-2.598;2023-03-11T16:00:15;12.23;;;7.35;;
56255;SDS011;57229;51.432;-2.598;2023-03-11T16:02:50;15.67;;;7.97;;
56255;SDS011;57229;51.432;-2.598;2023-03-11T16:05:20;12.77;;;8.07;;
56255;SDS011;57229;51.432;-2.598;2023-03-11T16:07:47;13.88;;;7.35;;
56255;SDS011;57229;51.432;-2.598;2023-03-11T16:10:15;14.93;;;7.80;;
56255;SDS011;57229;51.432;-2.598;2023-03-11T16:12:43;12.35;;;7.18;;
56255;SDS011;57229;51.432;-2.598;2023-03-11T16:15:20;10.50;;;7.53;;
56255;SDS011;57229;51.432;-2.598;2023-03-11T16:17:52;12.27;;;7.40;;
56255;SDS011;57229;51.432;-2.598;2023-03-11T16:20:20;9.95;;;7.63;;
56255;SDS011;57229;51.432;-2.598;2023-03-11T16:22:48;18.52;;;7.95;;
56255;SDS011;57229;51.432;-2.598;2023-03-11T16:25:27;12.68;;;7.97;;
56255;SDS011;57229;51.432;-2.598;2023-03-11T16:27:55;13.32;;;8.05;;
56255;SDS011;57229;51.432;-2.598;2023-03-11T16:30:22;11.43;;;7.97;;
56255;SDS011;57229;51.432;-2.598;2023-03-11T16:32:49;14.30;;;7.95;;
56255;SDS011;57229;51.432;-2.598;2023-03-11T16:35:15;16.85;;;8.50;;
56255;SDS011;57229;51.432;-2.598;2023-03-11T16:37:41;10.57;;;8.10;;
56255;SDS011;57229;51.432;-2.598;2023-03-11T16:40:10;12.35;;;8.23;;
56255;SDS011;57229;51.432;-2.598;2023-03-11T16:42:40;12.43;;;8.07;;
56255;SDS011;57229;51.432;-2.598;2023-03-11T16:45:07;8.50;;;7.57;;
56255;SDS011;57229;51.432;-2.598;2023-03-11T16:47:34;11.13;;;7.85;;
56255;SDS011;57229;51.432;-2.598;2023-03-11T16:50:00;9.43;;;7.72;;
56255;SDS011;57229;51.432;-2.598;2023-03-11T16:52:26;10.45;;;8.57;;
56255;SDS011;57229;51.432;-2.598;2023-03-11T16:54:51;11.05;;;7.68;;
56255;SDS011;57229;51.432;-2.598;2023-03-11T16:57:17;9.63;;;7.57;;
56255;SDS011;57229;51.432;-2.598;2023-03-11T16:59:43;12.15;;;7.80;;
56255;SDS011;57229;51.432;-2.598;2023-03-11T17:02:09;8.70;;;6.97;;
56255;SDS011;57229;51.432;-2.598;2023-03-11T17:04:36;7.68;;;6.85;;
56255;SDS011;57229;51.432;-2.598;2023-03-11T17:07:02;11.90;;;7.18;;
56255;SDS011;57229;51.432;-2.598;2023-03-11T17:09:29;10.85;;;7.00;;
56255;SDS011;57229;51.432;-2.598;2023-03-11T17:11:56;10.13;;;7.40;;
56255;SDS011;57229;51.432;-2.598;2023-03-11T17:14:22;9.48;;;7.22;;
56255;SDS011;57229;51.432;-2.598;2023-03-11T17:16:48;9.35;;;6.63;;
56255;SDS011;57229;51.432;-2.598;2023-03-11T17:19:14;8.68;;;7.35;;
56255;SDS011;57229;51.432;-2.598;2023-03-11T17:21:40;10.32;;;7.53;;
56255;SDS011;57229;51.432;-2.598;2023-03-11T17:24:05;8.07;;;7.28;;
56255;SDS011;57229;51.432;-2.598;2023-03-11T17:26:32;9.73;;;7.63;;